Terminal Aerodrome Forecast
Issued by NWS

Home | Current Version | Previous Version | Text Only | Print | Product List | Glossary On
Versions: 1 2 3 4 5 6 7 8 9 10 11 12 13 14 15 16 17 18 19 20 21 22 23 24 25 26 27 28
000
FTUS43 KBIS 262328
TAFMOT
TAF
KMOT 262328Z 2700/2724 34007KT P6SM -TSRA BKN090CB
      TEMPO 2700/2702 VRB20G30KT 3SM TSRA BKN040CB
     FM270200 34006KT P6SM VCTS BKN120CB
     FM270400 33004KT P6SM BKN080
     FM271300 33004KT P6SM OVC025
     FM271900 01008KT P6SM BKN035=

USA.gov is the U.S. government's official web portal to all federal, state and local government web resources and services.